Cranwell, RAF Cranwell (EGYD)

NameRAF Cranwell
CityCranwell
CountryUnited Kingdom
ICAOEGYD
IATA
Altitude66 m
CoordinatesGoogle Map
Live Air TrafficLiveATC.net
METAREGYD 211750Z AUTO 19007KT 9999 // NCD 20/06 Q1015
2019-04-21 17:50:00 Wind: South (190°) 3.6 m/s - Visibility: > 10000 m - Temperature: 20 °C - Dew point: 6 °C - Humidity: 40.2% - Pressure: 1015 hPa
Statistics

The table below shows the detailed information of all flights to/from Cranwell, RAF Cranwell (EGYD).